createdAt,value
2023-04-16T00:01:19.222Z,11.93
2023-04-16T00:02:41.852Z,11.95
2023-04-16T00:04:06.028Z,11.93
2023-04-16T00:05:29.270Z,11.93
2023-04-16T00:06:51.708Z,11.93
2023-04-16T00:08:14.031Z,11.91
2023-04-16T00:09:38.006Z,11.89
2023-04-16T00:11:00.566Z,11.86
2023-04-16T00:12:22.972Z,11.83
2023-04-16T00:13:43.875Z,11.80
2023-04-16T00:15:06.684Z,11.78
2023-04-16T00:16:28.252Z,11.75
2023-04-16T00:17:50.851Z,11.72
2023-04-16T00:19:14.430Z,11.70
2023-04-16T00:20:35.474Z,11.67
2023-04-16T00:21:57.906Z,11.64
2023-04-16T00:23:21.104Z,11.60
2023-04-16T00:24:43.321Z,11.58
2023-04-16T00:26:05.733Z,11.56
2023-04-16T00:27:28.418Z,11.53
2023-04-16T00:28:49.920Z,11.51
2023-04-16T00:30:12.706Z,11.47
2023-04-16T00:31:37.334Z,11.43
2023-04-16T00:32:59.965Z,11.42
2023-04-16T00:34:23.305Z,11.36
2023-04-16T00:35:47.234Z,11.34
2023-04-16T00:37:09.754Z,11.35
2023-04-16T00:38:32.707Z,11.35
2023-04-16T00:39:55.205Z,11.30
2023-04-16T00:41:17.201Z,11.29
2023-04-16T00:42:39.448Z,11.21
2023-04-16T00:44:01.939Z,11.25
2023-04-16T00:45:22.727Z,11.23
2023-04-16T00:46:45.659Z,11.19
2023-04-16T00:48:07.833Z,11.20
2023-04-16T00:49:32.468Z,11.16
2023-04-16T00:50:56.068Z,11.14
2023-04-16T00:52:21.558Z,11.14
2023-04-16T00:53:44.621Z,11.13
2023-04-16T00:55:13.396Z,11.10
2023-04-16T00:56:37.032Z,11.09
2023-04-16T00:57:58.034Z,11.08
2023-04-16T00:59:20.847Z,11.04
2023-04-16T01:00:41.950Z,11.04
2023-04-16T01:02:04.851Z,11.01
2023-04-16T01:03:35.469Z,11.01
2023-04-16T01:04:59.759Z,10.97
2023-04-16T01:06:24.718Z,10.93
2023-04-16T01:07:46.661Z,10.96
2023-04-16T01:09:09.280Z,10.91
2023-04-16T01:10:31.260Z,10.90
2023-04-16T01:11:53.250Z,10.85
2023-04-16T01:13:15.414Z,10.87
2023-04-16T01:14:37.678Z,10.87
2023-04-16T01:15:59.117Z,10.84
2023-04-16T01:17:21.403Z,10.83
2023-04-16T01:18:42.584Z,10.80
2023-04-16T01:20:07.371Z,10.79
2023-04-16T01:21:34.244Z,10.78
2023-04-16T01:22:55.510Z,10.75
2023-04-16T01:24:18.015Z,10.70
2023-04-16T01:25:39.061Z,10.72
2023-04-16T01:27:01.661Z,10.66
2023-04-16T01:28:23.107Z,10.62
2023-04-16T01:29:45.013Z,10.67
2023-04-16T01:31:07.929Z,10.63
2023-04-16T01:32:42.832Z,10.62
2023-04-16T01:34:04.448Z,10.62
2023-04-16T01:35:27.372Z,10.59
2023-04-16T01:36:53.781Z,10.59
2023-04-16T01:38:16.122Z,10.53
2023-04-16T01:39:38.426Z,10.54
2023-04-16T01:40:59.687Z,10.48
2023-04-16T01:42:21.677Z,10.47
2023-04-16T01:43:44.108Z,10.46
2023-04-16T01:45:10.308Z,10.44
2023-04-16T01:46:35.167Z,10.35
2023-04-16T01:47:57.442Z,10.42
2023-04-16T01:49:18.853Z,10.40
2023-04-16T01:50:41.054Z,10.40
2023-04-16T01:52:05.520Z,10.38
2023-04-16T01:53:26.619Z,10.34
2023-04-16T01:54:48.987Z,10.35
2023-04-16T01:56:09.535Z,10.30
2023-04-16T01:57:31.847Z,10.30
2023-04-16T01:58:53.269Z,10.29
2023-04-16T02:00:17.765Z,10.28
2023-04-16T02:01:43.550Z,10.28
2023-04-16T02:03:09.241Z,10.27
2023-04-16T02:04:30.288Z,10.25
2023-04-16T02:05:52.688Z,10.25
2023-04-16T02:07:16.472Z,10.21
2023-04-16T02:08:37.538Z,10.23
2023-04-16T02:09:59.787Z,10.23
2023-04-16T02:11:23.802Z,10.18
2023-04-16T02:12:45.546Z,10.20
2023-04-16T02:14:09.923Z,10.20
2023-04-16T02:15:31.308Z,10.22
2023-04-16T02:16:53.752Z,10.21
2023-04-16T02:18:36.856Z,10.20
2023-04-16T02:19:59.260Z,10.18
2023-04-16T02:21:21.523Z,10.20
2023-04-16T02:22:44.879Z,10.19
2023-04-16T02:24:11.423Z,10.17
2023-04-16T02:25:33.551Z,10.17
2023-04-16T02:26:55.213Z,10.15
2023-04-16T02:28:18.616Z,10.16
2023-04-16T02:29:41.004Z,10.15
2023-04-16T02:31:09.142Z,10.11
2023-04-16T02:32:37.897Z,10.15
2023-04-16T02:33:59.681Z,10.13
2023-04-16T02:35:22.355Z,10.12
2023-04-16T02:36:45.367Z,10.13
2023-04-16T02:38:09.160Z,10.11
2023-04-16T02:39:30.625Z,10.12
2023-04-16T02:40:53.078Z,10.10
2023-04-16T02:42:15.853Z,10.07
2023-04-16T02:43:38.383Z,10.10
2023-04-16T02:44:59.993Z,10.10
2023-04-16T02:46:22.448Z,10.09
2023-04-16T02:47:44.427Z,10.06
2023-04-16T02:49:07.016Z,10.06
2023-04-16T02:50:28.797Z,10.02
2023-04-16T02:51:53.892Z,10.09
2023-04-16T02:53:19.495Z,10.01
2023-04-16T02:54:45.556Z,10.07
2023-04-16T02:56:07.715Z,10.08
2023-04-16T02:57:32.398Z,10.04
2023-04-16T02:59:00.351Z,9.97
2023-04-16T03:00:24.497Z,9.99
2023-04-16T03:01:48.438Z,10.02
2023-04-16T03:03:13.620Z,9.97
2023-04-16T03:04:38.569Z,9.97
2023-04-16T03:06:00.345Z,10.04
2023-04-16T03:07:25.106Z,10.03
2023-04-16T03:08:48.546Z,10.01
2023-04-16T03:10:12.162Z,10.02
2023-04-16T03:11:33.667Z,10.02
2023-04-16T03:12:58.189Z,10.00
2023-04-16T03:14:23.299Z,10.01
2023-04-16T03:15:52.071Z,10.00
2023-04-16T03:17:14.381Z,10.01
2023-04-16T03:18:36.125Z,9.98
2023-04-16T03:19:57.419Z,9.98
2023-04-16T03:21:19.659Z,9.99
2023-04-16T03:22:41.982Z,10.00
2023-04-16T03:24:05.841Z,10.01
2023-04-16T03:25:26.942Z,10.04
2023-04-16T03:26:49.197Z,10.04
2023-04-16T03:28:10.759Z,10.06
2023-04-16T03:29:34.089Z,10.07
2023-04-16T03:30:55.280Z,10.08
2023-04-16T03:32:23.335Z,10.10
2023-04-16T03:33:54.140Z,10.12
2023-04-16T03:35:17.572Z,10.13
2023-04-16T03:36:48.949Z,10.17
2023-04-16T03:38:10.339Z,10.16
2023-04-16T03:39:34.789Z,10.12
2023-04-16T03:40:57.277Z,10.19
2023-04-16T03:42:19.620Z,10.21
2023-04-16T03:43:40.864Z,10.21
2023-04-16T03:45:04.096Z,10.23
2023-04-16T03:46:26.404Z,10.18
2023-04-16T03:47:52.876Z,10.23
2023-04-16T03:49:17.996Z,10.25
2023-04-16T03:52:21.251Z,10.25
2023-04-16T03:53:47.142Z,10.23
2023-04-16T03:55:11.664Z,10.28
2023-04-16T03:56:35.450Z,10.28
2023-04-16T03:57:57.767Z,10.30
2023-04-16T03:59:25.585Z,10.27
2023-04-16T04:00:48.247Z,10.30
2023-04-16T04:02:11.970Z,10.31
2023-04-16T04:03:33.607Z,10.32
2023-04-16T04:04:57.197Z,10.33
2023-04-16T04:06:37.102Z,10.34
2023-04-16T04:07:58.013Z,10.38
2023-04-16T04:09:22.479Z,10.40
2023-04-16T04:10:46.151Z,10.42
2023-04-16T04:12:10.159Z,10.44
2023-04-16T04:13:34.340Z,10.45
2023-04-16T04:14:56.094Z,10.43
2023-04-16T04:16:18.302Z,10.51
2023-04-16T04:17:39.626Z,10.52
2023-04-16T04:19:02.121Z,10.53
2023-04-16T04:20:26.451Z,10.56
2023-04-16T04:21:48.828Z,10.62
2023-04-16T04:23:12.586Z,10.64
2023-04-16T04:24:33.747Z,10.65
2023-04-16T04:25:57.390Z,10.67
2023-04-16T04:27:20.393Z,10.72
2023-04-16T04:28:52.114Z,10.70
2023-04-16T04:30:13.268Z,10.76
2023-04-16T04:31:36.699Z,10.82
2023-04-16T04:32:58.065Z,10.83
2023-04-16T04:34:20.791Z,10.87
2023-04-16T04:35:42.020Z,10.90
2023-04-16T04:37:13.193Z,10.92
2023-04-16T04:38:34.259Z,10.94
2023-04-16T04:39:58.220Z,10.97
2023-04-16T04:41:21.943Z,11.01
2023-04-16T04:42:43.132Z,11.02
2023-04-16T04:44:06.784Z,11.05
2023-04-16T04:45:31.677Z,11.05
2023-04-16T04:46:52.997Z,11.05
2023-04-16T04:48:15.425Z,11.08
2023-04-16T04:49:37.152Z,11.08
2023-04-16T04:51:17.397Z,11.10
2023-04-16T04:52:42.317Z,11.12
2023-04-16T04:54:03.599Z,11.14
2023-04-16T04:55:28.985Z,11.17
2023-04-16T04:57:04.881Z,11.18
2023-04-16T04:58:28.463Z,11.19
2023-04-16T04:59:55.709Z,11.22
2023-04-16T05:01:19.667Z,11.26
2023-04-16T05:02:42.210Z,11.29
2023-04-16T05:04:05.849Z,11.32
2023-04-16T05:05:27.154Z,11.37
2023-04-16T05:06:49.534Z,11.41
2023-04-16T05:08:10.691Z,11.45
2023-04-16T05:09:32.997Z,11.45
2023-04-16T05:11:09.857Z,11.55
2023-04-16T05:12:48.929Z,11.59
2023-04-16T05:14:13.536Z,11.64
2023-04-16T05:15:45.836Z,11.70
2023-04-16T05:17:08.480Z,11.77
2023-04-16T05:18:31.296Z,11.84
2023-04-16T05:19:55.721Z,11.90
2023-04-16T05:21:17.849Z,11.95
2023-04-16T05:22:40.194Z,12.03
2023-04-16T05:24:01.335Z,12.07
2023-04-16T05:25:24.037Z,12.17
2023-04-16T05:26:46.084Z,12.23
2023-04-16T05:28:09.595Z,12.31
2023-04-16T05:29:30.600Z,12.38
2023-04-16T05:30:52.745Z,12.39
2023-04-16T05:32:18.494Z,12.54
2023-04-16T05:33:41.065Z,12.63
2023-04-16T05:35:02.029Z,12.72
2023-04-16T05:36:24.248Z,12.81
2023-04-16T05:37:45.442Z,12.88
2023-04-16T05:39:08.884Z,13.08
2023-04-16T05:40:29.910Z,13.24
2023-04-16T05:41:52.080Z,13.35
2023-04-16T05:43:15.535Z,13.40
2023-04-16T05:44:37.662Z,13.53
2023-04-16T05:45:59.837Z,13.66
2023-04-16T05:47:21.808Z,13.77
2023-04-16T05:48:44.211Z,13.89
2023-04-16T05:50:07.140Z,13.96
2023-04-16T05:51:37.745Z,14.09
2023-04-16T05:52:59.219Z,14.22
2023-04-16T05:54:21.785Z,14.32
2023-04-16T05:55:42.259Z,14.34
2023-04-16T05:57:07.843Z,14.45
2023-04-16T05:58:31.785Z,14.55
2023-04-16T05:59:54.075Z,14.58
2023-04-16T06:01:20.479Z,14.62
2023-04-16T06:02:43.134Z,14.67
2023-04-16T06:04:04.575Z,14.66
2023-04-16T06:05:28.181Z,14.64
2023-04-16T06:06:50.945Z,14.61
2023-04-16T06:08:12.377Z,14.61
2023-04-16T06:09:34.876Z,14.52
2023-04-16T06:10:57.320Z,14.45
2023-04-16T06:12:19.588Z,14.40
2023-04-16T06:13:44.535Z,14.36
2023-04-16T06:15:07.729Z,14.27
2023-04-16T06:16:28.716Z,14.23
2023-04-16T06:17:51.321Z,14.13
2023-04-16T06:19:15.518Z,14.14
2023-04-16T06:20:40.702Z,14.14
2023-04-16T06:22:01.764Z,14.16
2023-04-16T06:23:24.150Z,14.26
2023-04-16T06:24:46.668Z,14.35
2023-04-16T06:26:07.789Z,14.53
2023-04-16T06:27:30.102Z,14.68
2023-04-16T06:28:56.192Z,14.84
2023-04-16T06:30:19.974Z,14.97
2023-04-16T06:31:42.185Z,15.23
2023-04-16T06:33:03.669Z,15.44
2023-04-16T06:34:29.517Z,15.63
2023-04-16T06:35:51.972Z,15.79
2023-04-16T06:37:18.746Z,15.99
2023-04-16T06:38:41.088Z,16.27
2023-04-16T06:40:03.285Z,16.46
2023-04-16T06:41:26.824Z,16.71
2023-04-16T06:42:56.113Z,17.02
2023-04-16T06:44:25.806Z,17.31
2023-04-16T06:45:48.399Z,17.59
2023-04-16T06:47:12.192Z,18.03
2023-04-16T06:48:36.931Z,18.40
2023-04-16T06:49:57.811Z,18.70
2023-04-16T06:51:22.498Z,19.01
2023-04-16T06:52:44.924Z,19.44
2023-04-16T06:58:57.907Z,20.36
2023-04-16T07:00:21.869Z,20.60
2023-04-16T07:01:47.555Z,20.67
2023-04-16T07:03:09.670Z,20.81
2023-04-16T07:04:41.059Z,20.77
2023-04-16T07:06:03.341Z,20.82
2023-04-16T07:07:32.335Z,21.03
2023-04-16T07:08:54.414Z,21.19
2023-04-16T07:10:17.008Z,21.29
2023-04-16T07:11:39.450Z,21.25
2023-04-16T07:13:05.689Z,21.26
2023-04-16T07:14:27.760Z,21.30
2023-04-16T07:15:50.852Z,21.47
2023-04-16T07:17:13.788Z,21.84
2023-04-16T07:18:38.087Z,22.10
2023-04-16T07:20:00.411Z,22.33
2023-04-16T07:21:23.732Z,22.66
2023-04-16T07:22:44.720Z,22.88
2023-04-16T07:24:14.929Z,23.11
2023-04-16T07:25:37.392Z,23.39
2023-04-16T07:27:02.964Z,23.57
2023-04-16T07:28:25.504Z,23.74
2023-04-16T07:29:47.989Z,23.88
2023-04-16T07:31:11.745Z,24.05
2023-04-16T07:32:33.957Z,24.20
2023-04-16T07:33:55.939Z,24.38
2023-04-16T07:35:18.740Z,24.57
2023-04-16T07:36:40.952Z,24.71
2023-04-16T07:38:02.201Z,24.98
2023-04-16T07:39:40.314Z,25.23
2023-04-16T07:41:26.028Z,25.61
2023-04-16T07:42:48.346Z,26.00
2023-04-16T07:44:11.181Z,26.28
2023-04-16T07:45:49.966Z,26.68
2023-04-16T07:47:22.078Z,27.04
2023-04-16T07:48:44.361Z,27.27
2023-04-16T07:52:58.167Z,28.42
2023-04-16T07:57:17.549Z,30.27
2023-04-16T07:58:42.319Z,31.00
2023-04-16T08:00:08.502Z,31.76
2023-04-16T08:02:02.261Z,32.73
2023-04-16T08:03:29.412Z,34.34
2023-04-16T08:04:52.112Z,35.99
2023-04-16T08:06:14.435Z,37.60
2023-04-16T08:07:59.541Z,39.25
2023-04-16T08:09:22.410Z,40.78
2023-04-16T10:10:26.909Z,60.04
2023-04-16T10:12:02.854Z,58.41
2023-04-16T10:13:43.364Z,59.62
2023-04-16T10:15:26.016Z,59.93
2023-04-16T10:16:54.522Z,60.17
2023-04-16T10:18:18.299Z,60.33
2023-04-16T10:19:57.912Z,60.46
2023-04-16T10:26:17.232Z,59.74
2023-04-16T10:27:49.284Z,59.02
2023-04-16T10:29:37.213Z,58.16
2023-04-16T10:33:59.103Z,53.13
2023-04-16T10:35:29.352Z,50.82
2023-04-16T10:37:00.169Z,48.81
2023-04-16T10:38:35.658Z,46.76
2023-04-16T10:40:01.712Z,45.01
2023-04-16T10:41:26.966Z,43.41
2023-04-16T10:42:58.516Z,41.96
2023-04-16T10:44:35.206Z,40.50
2023-04-16T10:45:57.789Z,39.20
2023-04-16T10:47:32.097Z,38.13
2023-04-16T10:49:04.157Z,36.97
2023-04-16T10:50:26.926Z,36.07
2023-04-16T10:52:47.881Z,34.92
2023-04-16T10:54:39.484Z,33.58
2023-04-16T10:56:16.869Z,32.61
2023-04-16T10:57:42.066Z,31.79
2023-04-16T10:59:19.641Z,31.05
2023-04-16T11:01:04.510Z,30.29
2023-04-16T11:02:33.247Z,29.73
2023-04-16T11:03:58.182Z,29.17
2023-04-16T11:05:23.783Z,28.62
2023-04-16T11:09:46.098Z,27.39
2023-04-16T11:11:11.620Z,26.96
2023-04-16T11:12:38.105Z,26.59
2023-04-16T11:14:08.829Z,26.26
2023-04-16T11:15:33.804Z,25.92
2023-04-16T11:16:55.878Z,25.63
2023-04-16T11:18:20.967Z,25.34
2023-04-16T11:19:45.295Z,25.08
2023-04-16T11:21:10.240Z,24.84
2023-04-16T11:22:32.698Z,24.61
2023-04-16T11:23:55.292Z,24.40
2023-04-16T11:25:29.635Z,24.14
2023-04-16T11:26:53.347Z,23.97
2023-04-16T11:28:14.427Z,23.79
2023-04-16T11:29:38.915Z,23.60
2023-04-16T11:31:12.571Z,23.38
2023-04-16T11:32:35.871Z,23.22
2023-04-16T11:34:01.149Z,23.09
2023-04-16T11:35:26.434Z,22.89
2023-04-16T11:36:49.915Z,22.76
2023-04-16T11:38:12.300Z,22.60
2023-04-16T11:39:56.700Z,22.42
2023-04-16T11:42:11.564Z,22.28
2023-04-16T11:43:42.815Z,22.18
2023-04-16T11:46:36.153Z,21.99
2023-04-16T11:48:10.608Z,21.77
2023-04-16T11:50:23.659Z,21.67
2023-04-16T11:52:53.414Z,21.46
2023-04-16T11:57:51.781Z,21.15
2023-04-16T11:59:23.209Z,21.10
2023-04-16T12:01:00.037Z,21.10
2023-04-16T12:02:42.844Z,20.95
2023-04-16T12:04:07.078Z,20.88
2023-04-16T12:05:34.004Z,20.88
2023-04-16T12:07:12.751Z,20.76
2023-04-16T12:08:35.018Z,20.82
2023-04-16T12:10:08.151Z,20.85
2023-04-16T12:11:44.425Z,20.92
2023-04-16T12:13:15.737Z,20.99
2023-04-16T12:14:38.027Z,21.10
2023-04-16T12:16:03.670Z,21.25
2023-04-16T12:17:25.848Z,21.33
2023-04-16T12:19:03.228Z,21.45
2023-04-16T12:20:44.570Z,21.55
2023-04-16T12:22:06.764Z,21.65
2023-04-16T12:23:30.081Z,21.67
2023-04-16T12:24:57.188Z,21.69
2023-04-16T12:26:19.263Z,21.73
2023-04-16T12:27:50.068Z,21.77
2023-04-16T12:29:32.066Z,21.75
2023-04-16T12:31:04.200Z,21.78
2023-04-16T12:32:28.556Z,21.77
2023-04-16T12:34:53.320Z,21.65
2023-04-16T12:38:56.960Z,21.67
2023-04-16T12:40:26.942Z,21.70
2023-04-16T12:41:49.410Z,21.64
2023-04-16T12:43:11.926Z,21.76
2023-04-16T12:44:34.264Z,21.76
2023-04-16T12:45:55.340Z,21.80
2023-04-16T12:47:17.827Z,21.82
2023-04-16T12:48:40.263Z,21.85
2023-04-16T12:50:02.578Z,21.88
2023-04-16T12:51:24.322Z,21.98
2023-04-16T12:52:59.592Z,22.05
2023-04-16T12:54:38.044Z,22.09
2023-04-16T12:56:13.278Z,22.17
2023-04-16T12:57:37.406Z,22.11
2023-04-16T12:59:14.579Z,22.02
2023-04-16T13:00:40.612Z,22.00
2023-04-16T13:02:04.125Z,22.10
2023-04-16T13:03:39.238Z,22.09
2023-04-16T13:05:08.535Z,22.20
2023-04-16T13:06:40.411Z,22.25
2023-04-16T13:08:06.503Z,22.21
2023-04-16T13:12:46.866Z,22.32
2023-04-16T13:14:09.622Z,22.40
2023-04-16T13:15:36.016Z,22.47
2023-04-16T13:16:58.437Z,22.43
2023-04-16T13:18:19.611Z,22.45
2023-04-16T13:19:42.113Z,22.43
2023-04-16T13:21:07.947Z,22.42
2023-04-16T13:22:32.511Z,22.39
2023-04-16T13:23:56.794Z,22.43
2023-04-16T13:25:22.566Z,22.45
2023-04-16T13:26:45.232Z,22.52
2023-04-16T13:28:07.561Z,22.58
2023-04-16T13:29:30.194Z,22.63
2023-04-16T13:30:53.486Z,22.56
2023-04-16T13:32:16.953Z,22.61
2023-04-16T13:33:39.785Z,22.52
2023-04-16T13:35:05.572Z,22.56
2023-04-16T13:36:28.315Z,22.52
2023-04-16T13:37:50.691Z,22.51
2023-04-16T13:39:13.670Z,22.38
2023-04-16T13:40:35.049Z,22.41
2023-04-16T13:42:02.005Z,22.34
2023-04-16T13:43:27.005Z,22.29
2023-04-16T13:44:54.264Z,22.20
2023-04-16T13:46:16.801Z,22.21
2023-04-16T13:47:44.748Z,22.18
2023-04-16T13:49:06.900Z,22.17
2023-04-16T13:50:29.688Z,22.04
2023-04-16T13:52:02.307Z,22.04
2023-04-16T13:53:48.675Z,21.96
2023-04-16T13:55:14.318Z,21.89
2023-04-16T13:56:36.956Z,21.90
2023-04-16T13:59:02.233Z,21.83
2023-04-16T14:00:29.341Z,21.62
2023-04-16T14:02:08.709Z,21.52
2023-04-16T14:03:32.658Z,21.40
2023-04-16T14:04:58.272Z,21.30
2023-04-16T14:06:23.596Z,21.22
2023-04-16T14:07:46.456Z,21.13
2023-04-16T14:09:10.901Z,21.00
2023-04-16T14:10:35.224Z,20.89
2023-04-16T14:11:56.858Z,20.78
2023-04-16T14:13:20.809Z,20.69
2023-04-16T14:14:43.336Z,20.54
2023-04-16T14:16:05.925Z,20.52
2023-04-16T14:17:28.187Z,20.43
2023-04-16T14:18:53.433Z,20.38
2023-04-16T14:20:16.115Z,20.30
2023-04-16T14:21:38.414Z,20.26
2023-04-16T14:23:00.878Z,20.21
2023-04-16T14:24:23.376Z,20.19
2023-04-16T14:25:47.214Z,20.16
2023-04-16T14:27:10.247Z,20.16
2023-04-16T14:28:32.685Z,20.15
2023-04-16T14:29:54.857Z,20.17
2023-04-16T14:31:17.342Z,20.10
2023-04-16T14:32:39.614Z,20.13
2023-04-16T14:34:02.119Z,20.13
2023-04-16T14:35:24.950Z,20.12
2023-04-16T14:36:46.457Z,20.08
2023-04-16T14:38:08.870Z,20.05
2023-04-16T14:46:27.129Z,20.04
2023-04-16T14:46:28.865Z,19.96
2023-04-16T14:51:15.185Z,19.78
2023-04-16T14:52:37.593Z,19.87
2023-04-16T14:54:22.170Z,19.76
2023-04-16T14:55:46.704Z,19.82
2023-04-16T14:57:16.202Z,19.79
2023-04-16T14:58:39.452Z,19.79
2023-04-16T15:00:24.749Z,19.83
2023-04-16T15:02:00.893Z,19.88
2023-04-16T15:03:25.148Z,19.90
2023-04-16T15:06:55.522Z,19.89
2023-04-16T15:08:26.276Z,19.91
2023-04-16T15:09:48.677Z,19.92
2023-04-16T15:11:16.473Z,19.93
2023-04-16T15:12:39.490Z,19.96
2023-04-16T15:14:01.879Z,19.99
2023-04-16T15:15:24.051Z,20.00
2023-04-16T15:16:47.113Z,20.01
2023-04-16T15:18:11.345Z,20.03
2023-04-16T15:19:33.953Z,20.00
2023-04-16T15:21:12.886Z,20.04
2023-04-16T15:22:41.897Z,19.97
2023-04-16T15:24:06.071Z,20.01
2023-04-16T15:25:30.454Z,20.03
2023-04-16T15:26:56.412Z,19.97
2023-04-16T15:28:24.348Z,19.96
2023-04-16T15:29:50.976Z,20.03
2023-04-16T15:31:14.436Z,19.94
2023-04-16T15:32:42.676Z,20.05
2023-04-16T15:34:12.580Z,19.99
2023-04-16T15:35:41.840Z,20.06
2023-04-16T15:37:09.141Z,19.97
2023-04-16T15:38:45.614Z,20.07
2023-04-16T15:44:15.876Z,19.92
2023-04-16T15:51:12.570Z,19.67
2023-04-16T15:56:37.966Z,19.53
2023-04-16T15:57:36.131Z,19.36
2023-04-16T16:01:32.603Z,19.23
2023-04-16T16:03:29.851Z,19.15
2023-04-16T16:04:54.093Z,19.14
2023-04-16T16:06:24.845Z,19.11
2023-04-16T16:07:47.244Z,18.98
2023-04-16T16:09:18.165Z,18.96
2023-04-16T16:10:52.472Z,18.83
2023-04-16T16:12:19.877Z,18.79
2023-04-16T16:13:42.520Z,18.62
2023-04-16T16:16:27.199Z,18.58
2023-04-16T16:17:55.834Z,18.43
2023-04-16T16:19:32.095Z,18.35
2023-04-16T16:28:29.090Z,17.98
2023-04-16T16:30:01.489Z,17.84
2023-04-16T16:31:24.255Z,17.77
2023-04-16T16:32:46.626Z,17.83
2023-04-16T16:34:20.888Z,17.81
2023-04-16T16:35:49.310Z,17.76
2023-04-16T16:37:27.253Z,17.76
2023-04-16T16:39:10.803Z,17.67
2023-04-16T16:50:48.798Z,17.56
2023-04-16T16:52:29.297Z,17.38
2023-04-16T16:57:12.336Z,17.21
2023-04-16T17:00:03.022Z,17.20
2023-04-16T17:26:29.220Z,16.47
2023-04-16T17:28:00.895Z,16.48
2023-04-16T17:29:43.591Z,16.39
2023-04-16T17:31:11.610Z,16.40
2023-04-16T17:34:48.823Z,16.29
2023-04-16T17:36:59.543Z,16.17
2023-04-16T17:39:04.154Z,16.17
2023-04-16T17:46:11.733Z,15.85
2023-04-16T17:48:22.268Z,15.87
2023-04-16T17:54:37.035Z,15.61
2023-04-16T17:57:32.734Z,15.63
2023-04-16T17:58:41.401Z,15.45
2023-04-16T18:00:12.697Z,15.46
2023-04-16T18:01:39.741Z,15.43
2023-04-16T18:03:49.486Z,15.39
2023-04-16T18:07:31.882Z,15.29
2023-04-16T18:08:57.077Z,15.28
2023-04-16T18:10:44.725Z,15.26
2023-04-16T18:12:09.428Z,15.25
2023-04-16T18:13:31.805Z,15.25
2023-04-16T18:14:54.508Z,15.20
2023-04-16T18:16:22.779Z,15.22
2023-04-16T18:17:46.962Z,15.19
2023-04-16T18:19:10.575Z,15.20
2023-04-16T18:20:35.058Z,15.21
2023-04-16T18:21:58.733Z,15.18
2023-04-16T18:23:21.288Z,15.19
2023-04-16T18:24:46.479Z,15.14
2023-04-16T18:26:41.309Z,15.14
2023-04-16T18:28:05.290Z,15.15
2023-04-16T18:29:28.653Z,15.16
2023-04-16T18:30:51.273Z,15.18
2023-04-16T18:32:13.562Z,15.17
2023-04-16T18:35:02.808Z,15.16
2023-04-16T18:36:27.805Z,15.12
2023-04-16T18:37:50.132Z,15.12
2023-04-16T18:39:13.864Z,15.09
2023-04-16T18:40:41.801Z,15.06
2023-04-16T18:42:04.004Z,15.05
2023-04-16T18:43:26.232Z,15.03
2023-04-16T18:44:54.083Z,14.95
2023-04-16T18:46:21.757Z,14.98
2023-04-16T18:47:44.430Z,14.95
2023-04-16T18:49:08.215Z,14.93
2023-04-16T18:50:34.756Z,14.89
2023-04-16T18:52:00.477Z,14.88
2023-04-16T18:53:22.980Z,14.82
2023-04-16T18:54:46.814Z,14.82
2023-04-16T18:56:12.166Z,14.75
2023-04-16T18:57:38.909Z,14.71
2023-04-16T18:59:01.121Z,14.73
2023-04-16T19:00:23.864Z,14.67
2023-04-16T19:01:47.711Z,14.65
2023-04-16T19:03:10.137Z,14.61
2023-04-16T19:04:34.598Z,14.59
2023-04-16T19:06:02.804Z,14.49
2023-04-16T19:07:28.229Z,14.50
2023-04-16T19:08:50.701Z,14.50
2023-04-16T19:10:13.167Z,14.47
2023-04-16T19:11:35.751Z,14.42
2023-04-16T19:12:58.325Z,14.40
2023-04-16T19:14:20.852Z,14.36
2023-04-16T19:15:44.654Z,14.35
2023-04-16T19:17:08.551Z,14.32
2023-04-16T19:18:32.753Z,14.32
2023-04-16T19:19:56.329Z,14.27
2023-04-16T19:21:18.506Z,14.27
2023-04-16T19:22:44.476Z,14.21
2023-04-16T19:24:10.409Z,14.20
2023-04-16T19:25:45.035Z,14.11
2023-04-16T19:29:11.426Z,14.01
2023-04-16T19:30:36.310Z,14.08
2023-04-16T19:32:00.667Z,14.04
2023-04-16T19:33:32.783Z,14.03
2023-04-16T19:34:58.538Z,13.97
2023-04-16T19:36:21.168Z,13.98
2023-04-16T19:37:46.586Z,13.98
2023-04-16T19:39:17.184Z,13.95
2023-04-16T19:40:45.619Z,13.92
2023-04-16T19:42:09.794Z,13.96
2023-04-16T19:43:32.149Z,13.94
2023-04-16T19:44:54.499Z,13.95
2023-04-16T19:46:16.914Z,13.95
2023-04-16T19:47:39.191Z,13.96
2023-04-16T19:49:01.491Z,13.96
2023-04-16T19:50:29.021Z,13.97
2023-04-16T19:51:51.196Z,13.94
2023-04-16T19:53:22.682Z,13.92
2023-04-16T19:54:50.188Z,13.84
2023-04-16T19:56:13.754Z,13.84
2023-04-16T19:57:38.723Z,13.90
2023-04-16T19:59:29.608Z,13.91
2023-04-16T20:00:59.593Z,13.93
2023-04-16T20:02:22.687Z,13.83
2023-04-16T20:04:30.519Z,13.94
2023-04-16T20:05:59.610Z,13.88
2023-04-16T20:07:25.295Z,13.85
2023-04-16T20:08:53.227Z,13.92
2023-04-16T20:10:40.902Z,13.87
2023-04-16T20:12:08.904Z,13.96
2023-04-16T20:13:39.292Z,13.96
2023-04-16T20:15:16.354Z,13.88
2023-04-16T20:17:27.485Z,13.96
2023-04-16T20:18:57.682Z,13.99
2023-04-16T20:20:23.840Z,13.91
2023-04-16T20:21:54.674Z,14.00
2023-04-16T20:23:20.923Z,13.99
2023-04-16T20:24:47.933Z,13.96
2023-04-16T20:26:36.688Z,13.94
2023-04-16T20:28:15.000Z,13.99
2023-04-16T20:30:04.303Z,13.95
2023-04-16T20:31:30.288Z,13.95
2023-04-16T20:32:52.679Z,14.04
2023-04-16T20:34:24.291Z,14.03
2023-04-16T20:36:05.253Z,13.99
2023-04-16T20:37:43.864Z,13.98
2023-04-16T20:39:09.993Z,13.97
2023-04-16T20:40:33.986Z,13.97
2023-04-16T20:41:57.915Z,13.99
2023-04-16T20:43:20.165Z,13.97
2023-04-16T20:44:41.771Z,13.92
2023-04-16T20:46:11.614Z,13.91
2023-04-16T20:47:38.020Z,13.92
2023-04-16T20:49:10.713Z,13.91
2023-04-16T20:50:32.963Z,13.90
2023-04-16T20:52:21.001Z,13.88
2023-04-16T20:53:53.801Z,13.78
2023-04-16T20:55:21.192Z,13.77
2023-04-16T20:56:44.973Z,13.85
2023-04-16T20:58:09.649Z,13.81
2023-04-16T20:59:34.120Z,13.83
2023-04-16T21:01:01.603Z,13.78
2023-04-16T21:03:12.836Z,13.85
2023-04-16T21:05:03.671Z,13.82
2023-04-16T21:06:38.801Z,13.75
2023-04-16T21:08:06.905Z,13.76
2023-04-16T21:09:45.027Z,13.80
2023-04-16T21:11:40.516Z,13.79
2023-04-16T21:13:15.808Z,13.74
2023-04-16T21:15:04.577Z,13.77
2023-04-16T21:16:55.339Z,13.74
2023-04-16T21:18:45.415Z,13.72
2023-04-16T21:21:58.572Z,13.69
2023-04-16T21:27:41.275Z,13.61
2023-04-16T21:29:25.344Z,13.55
2023-04-16T21:31:32.464Z,13.52
2023-04-16T21:33:46.803Z,13.51
2023-04-16T21:35:16.821Z,13.48
2023-04-16T21:36:41.395Z,13.56
2023-04-16T21:38:09.124Z,13.47
2023-04-16T21:39:37.855Z,13.51
2023-04-16T21:41:10.852Z,13.47
2023-04-16T21:42:55.232Z,13.45
2023-04-16T21:44:27.438Z,13.44
2023-04-16T21:45:55.696Z,13.51
2023-04-16T21:47:24.718Z,13.44
2023-04-16T21:48:52.677Z,13.52
2023-04-16T21:50:19.620Z,13.55
2023-04-16T21:51:43.191Z,13.52
2023-04-16T21:53:09.159Z,13.51
2023-04-16T21:56:15.016Z,13.56
2023-04-16T21:57:48.260Z,13.47
2023-04-16T21:59:27.568Z,13.52
2023-04-16T22:00:52.958Z,13.57
2023-04-16T22:02:26.298Z,13.57
2023-04-16T22:03:52.401Z,13.55
2023-04-16T22:05:21.251Z,13.49
2023-04-16T22:06:45.927Z,13.59
2023-04-16T22:08:23.303Z,13.60
2023-04-16T22:09:48.097Z,13.56
2023-04-16T22:11:24.919Z,13.58
2023-04-16T22:12:58.566Z,13.53
2023-04-16T22:14:36.915Z,13.61
2023-04-16T22:16:12.189Z,13.61
2023-04-16T22:17:34.686Z,13.62
2023-04-16T22:19:02.075Z,13.54
2023-04-16T22:20:26.236Z,13.52
2023-04-16T22:21:54.303Z,13.61
2023-04-16T22:23:26.056Z,13.56
2023-04-16T22:25:04.930Z,13.55
2023-04-16T22:26:32.136Z,13.57
2023-04-16T22:27:57.918Z,13.56
2023-04-16T22:29:24.617Z,13.52
2023-04-16T22:30:46.037Z,13.52
2023-04-16T22:32:10.962Z,13.55
2023-04-16T22:33:33.365Z,13.54
2023-04-16T22:34:55.696Z,13.51
2023-04-16T22:36:16.715Z,13.52
2023-04-16T22:37:41.635Z,13.52
2023-04-16T22:39:08.540Z,13.53
2023-04-16T22:40:32.575Z,13.53
2023-04-16T22:41:54.593Z,13.51
2023-04-16T22:43:17.857Z,13.54
2023-04-16T22:44:39.992Z,13.48
2023-04-16T22:46:04.917Z,13.51
2023-04-16T22:47:27.144Z,13.53
2023-04-16T22:48:48.846Z,13.52
2023-04-16T22:50:12.730Z,13.52
2023-04-16T22:51:35.384Z,13.54
2023-04-16T22:52:57.687Z,13.53
2023-04-16T22:54:22.881Z,13.54
2023-04-16T22:55:44.933Z,13.55
2023-04-16T22:57:06.418Z,13.54
2023-04-16T22:58:30.283Z,13.50